sensor_id;sensor_type;location;lat;lon;timestamp;P1;durP1;ratioP1;P2;durP2;ratioP2
40609;SDS011;26316;55.976;37.140;2023-03-11T00:00:27;10.05;;;7.47;;
40609;SDS011;26316;55.976;37.140;2023-03-11T00:02:55;10.48;;;7.85;;
40609;SDS011;26316;55.976;37.140;2023-03-11T00:05:24;11.82;;;7.93;;
40609;SDS011;26316;55.976;37.140;2023-03-11T00:07:51;8.95;;;7.47;;
40609;SDS011;26316;55.976;37.140;2023-03-11T00:10:21;12.68;;;7.75;;
40609;SDS011;26316;55.976;37.140;2023-03-11T00:12:50;10.68;;;7.72;;
40609;SDS011;26316;55.976;37.140;2023-03-11T00:15:16;11.70;;;7.55;;
40609;SDS011;26316;55.976;37.140;2023-03-11T00:17:41;10.63;;;8.13;;
40609;SDS011;26316;55.976;37.140;2023-03-11T00:20:08;10.80;;;7.50;;
40609;SDS011;26316;55.976;37.140;2023-03-11T00:22:43;10.43;;;7.20;;
40609;SDS011;26316;55.976;37.140;2023-03-11T00:25:10;10.70;;;8.05;;
40609;SDS011;26316;55.976;37.140;2023-03-11T00:27:38;11.07;;;7.57;;
40609;SDS011;26316;55.976;37.140;2023-03-11T00:30:04;11.02;;;7.60;;
40609;SDS011;26316;55.976;37.140;2023-03-11T00:32:31;10.05;;;7.57;;
40609;SDS011;26316;55.976;37.140;2023-03-11T00:34:56;8.93;;;7.60;;
40609;SDS011;26316;55.976;37.140;2023-03-11T00:37:22;9.52;;;7.10;;
40609;SDS011;26316;55.976;37.140;2023-03-11T00:39:48;8.52;;;6.93;;
40609;SDS011;26316;55.976;37.140;2023-03-11T00:42:14;8.30;;;6.32;;
40609;SDS011;26316;55.976;37.140;2023-03-11T00:44:39;8.77;;;7.03;;
40609;SDS011;26316;55.976;37.140;2023-03-11T00:47:05;7.65;;;6.57;;
40609;SDS011;26316;55.976;37.140;2023-03-11T00:49:31;9.65;;;7.38;;
40609;SDS011;26316;55.976;37.140;2023-03-11T00:51:57;7.97;;;6.95;;
40609;SDS011;26316;55.976;37.140;2023-03-11T00:54:23;9.80;;;7.72;;
40609;SDS011;26316;55.976;37.140;2023-03-11T00:56:48;11.40;;;8.23;;
40609;SDS011;26316;55.976;37.140;2023-03-11T00:59:14;9.32;;;7.60;;
40609;SDS011;26316;55.976;37.140;2023-03-11T01:01:40;8.77;;;7.50;;
40609;SDS011;26316;55.976;37.140;2023-03-11T01:04:06;8.27;;;6.70;;
40609;SDS011;26316;55.976;37.140;2023-03-11T01:06:32;9.75;;;6.97;;
40609;SDS011;26316;55.976;37.140;2023-03-11T01:08:57;8.52;;;7.57;;
40609;SDS011;26316;55.976;37.140;2023-03-11T01:11:23;9.90;;;7.50;;
40609;SDS011;26316;55.976;37.140;2023-03-11T01:13:49;11.20;;;7.70;;
40609;SDS011;26316;55.976;37.140;2023-03-11T01:16:14;7.55;;;6.70;;
40609;SDS011;26316;55.976;37.140;2023-03-11T01:18:41;12.40;;;8.02;;
40609;SDS011;26316;55.976;37.140;2023-03-11T01:21:07;9.38;;;7.60;;
40609;SDS011;26316;55.976;37.140;2023-03-11T01:23:32;9.60;;;7.50;;
40609;SDS011;26316;55.976;37.140;2023-03-11T01:25:58;9.23;;;7.88;;
40609;SDS011;26316;55.976;37.140;2023-03-11T01:28:25;9.10;;;7.55;;
40609;SDS011;26316;55.976;37.140;2023-03-11T01:30:51;10.82;;;8.35;;
40609;SDS011;26316;55.976;37.140;2023-03-11T01:33:17;8.75;;;7.60;;
40609;SDS011;26316;55.976;37.140;2023-03-11T01:35:44;11.43;;;8.60;;
40609;SDS011;26316;55.976;37.140;2023-03-11T01:38:10;9.80;;;7.55;;
40609;SDS011;26316;55.976;37.140;2023-03-11T01:40:41;9.45;;;7.25;;
40609;SDS011;26316;55.976;37.140;2023-03-11T01:46:17;11.45;;;8.40;;
40609;SDS011;26316;55.976;37.140;2023-03-11T01:48:56;12.82;;;8.68;;
40609;SDS011;26316;55.976;37.140;2023-03-11T01:54:01;14.15;;;8.48;;
40609;SDS011;26316;55.976;37.140;2023-03-11T01:58:56;11.48;;;8.90;;
40609;SDS011;26316;55.976;37.140;2023-03-11T02:01:22;11.10;;;8.20;;
40609;SDS011;26316;55.976;37.140;2023-03-11T02:03:48;10.15;;;8.55;;
40609;SDS011;26316;55.976;37.140;2023-03-11T02:06:18;11.00;;;8.63;;
40609;SDS011;26316;55.976;37.140;2023-03-11T02:08:46;11.45;;;8.75;;
40609;SDS011;26316;55.976;37.140;2023-03-11T02:11:22;9.68;;;8.30;;
40609;SDS011;26316;55.976;37.140;2023-03-11T02:13:50;10.55;;;8.68;;
40609;SDS011;26316;55.976;37.140;2023-03-11T02:16:17;11.60;;;9.07;;
40609;SDS011;26316;55.976;37.140;2023-03-11T02:18:43;10.80;;;8.07;;
40609;SDS011;26316;55.976;37.140;2023-03-11T02:23:50;10.10;;;8.40;;
40609;SDS011;26316;55.976;37.140;2023-03-11T02:26:28;11.50;;;8.73;;
40609;SDS011;26316;55.976;37.140;2023-03-11T02:28:56;12.02;;;8.77;;
40609;SDS011;26316;55.976;37.140;2023-03-11T02:31:24;10.38;;;7.32;;
40609;SDS011;26316;55.976;37.140;2023-03-11T02:33:50;11.93;;;7.72;;
40609;SDS011;26316;55.976;37.140;2023-03-11T02:36:34;10.00;;;7.82;;
40609;SDS011;26316;55.976;37.140;2023-03-11T02:39:08;11.90;;;8.30;;
40609;SDS011;26316;55.976;37.140;2023-03-11T02:41:39;10.98;;;8.35;;
40609;SDS011;26316;55.976;37.140;2023-03-11T02:44:07;10.45;;;8.20;;
40609;SDS011;26316;55.976;37.140;2023-03-11T02:46:35;15.88;;;9.93;;
40609;SDS011;26316;55.976;37.140;2023-03-11T02:49:04;11.30;;;9.30;;
40609;SDS011;26316;55.976;37.140;2023-03-11T02:51:31;12.65;;;8.50;;
40609;SDS011;26316;55.976;37.140;2023-03-11T02:53:58;11.48;;;8.98;;
40609;SDS011;26316;55.976;37.140;2023-03-11T02:56:28;10.82;;;9.13;;
40609;SDS011;26316;55.976;37.140;2023-03-11T02:58:54;11.02;;;8.88;;
40609;SDS011;26316;55.976;37.140;2023-03-11T03:01:19;11.52;;;9.32;;
40609;SDS011;26316;55.976;37.140;2023-03-11T03:03:47;10.18;;;8.35;;
40609;SDS011;26316;55.976;37.140;2023-03-11T03:06:12;10.65;;;9.00;;
40609;SDS011;26316;55.976;37.140;2023-03-11T03:08:38;10.02;;;8.68;;
40609;SDS011;26316;55.976;37.140;2023-03-11T03:11:04;11.75;;;8.98;;
40609;SDS011;26316;55.976;37.140;2023-03-11T03:13:29;11.25;;;9.50;;
40609;SDS011;26316;55.976;37.140;2023-03-11T03:15:57;10.20;;;8.55;;
40609;SDS011;26316;55.976;37.140;2023-03-11T03:18:23;14.48;;;9.48;;
40609;SDS011;26316;55.976;37.140;2023-03-11T03:20:50;11.25;;;9.98;;
40609;SDS011;26316;55.976;37.140;2023-03-11T03:23:16;11.52;;;9.23;;
40609;SDS011;26316;55.976;37.140;2023-03-11T03:25:43;11.68;;;9.32;;
40609;SDS011;26316;55.976;37.140;2023-03-11T03:28:10;12.63;;;9.10;;
40609;SDS011;26316;55.976;37.140;2023-03-11T03:30:39;11.13;;;9.00;;
40609;SDS011;26316;55.976;37.140;2023-03-11T03:33:05;11.10;;;9.48;;
40609;SDS011;26316;55.976;37.140;2023-03-11T03:35:32;12.05;;;9.15;;
40609;SDS011;26316;55.976;37.140;2023-03-11T03:38:03;10.25;;;9.00;;
40609;SDS011;26316;55.976;37.140;2023-03-11T03:40:28;10.00;;;8.85;;
40609;SDS011;26316;55.976;37.140;2023-03-11T03:42:57;10.07;;;8.98;;
40609;SDS011;26316;55.976;37.140;2023-03-11T03:45:23;11.80;;;9.73;;
40609;SDS011;26316;55.976;37.140;2023-03-11T03:47:51;10.77;;;9.13;;
40609;SDS011;26316;55.976;37.140;2023-03-11T03:50:18;11.35;;;9.60;;
40609;SDS011;26316;55.976;37.140;2023-03-11T03:52:46;10.70;;;8.90;;
40609;SDS011;26316;55.976;37.140;2023-03-11T03:55:12;9.55;;;8.55;;
40609;SDS011;26316;55.976;37.140;2023-03-11T03:57:38;11.40;;;9.05;;
40609;SDS011;26316;55.976;37.140;2023-03-11T04:00:05;11.25;;;8.85;;
40609;SDS011;26316;55.976;37.140;2023-03-11T04:02:39;10.23;;;8.95;;
40609;SDS011;26316;55.976;37.140;2023-03-11T04:05:08;11.25;;;9.45;;
40609;SDS011;26316;55.976;37.140;2023-03-11T04:07:36;10.98;;;8.90;;
40609;SDS011;26316;55.976;37.140;2023-03-11T04:10:03;12.10;;;8.65;;
40609;SDS011;26316;55.976;37.140;2023-03-11T04:12:31;10.68;;;9.38;;
40609;SDS011;26316;55.976;37.140;2023-03-11T04:14:57;10.13;;;8.80;;
40609;SDS011;26316;55.976;37.140;2023-03-11T04:17:23;12.13;;;9.15;;
40609;SDS011;26316;55.976;37.140;2023-03-11T04:19:50;15.18;;;9.50;;
40609;SDS011;26316;55.976;37.140;2023-03-11T04:22:16;12.02;;;8.82;;
40609;SDS011;26316;55.976;37.140;2023-03-11T04:24:42;9.65;;;8.65;;
40609;SDS011;26316;55.976;37.140;2023-03-11T04:27:07;11.73;;;9.43;;
40609;SDS011;26316;55.976;37.140;2023-03-11T04:29:33;11.00;;;9.32;;
40609;SDS011;26316;55.976;37.140;2023-03-11T04:32:00;14.02;;;10.15;;
40609;SDS011;26316;55.976;37.140;2023-03-11T04:34:26;12.02;;;9.77;;
40609;SDS011;26316;55.976;37.140;2023-03-11T04:36:52;11.50;;;9.77;;
40609;SDS011;26316;55.976;37.140;2023-03-11T04:39:20;13.70;;;10.13;;
40609;SDS011;26316;55.976;37.140;2023-03-11T04:41:46;13.20;;;9.80;;
40609;SDS011;26316;55.976;37.140;2023-03-11T04:46:42;10.82;;;9.40;;
40609;SDS011;26316;55.976;37.140;2023-03-11T04:49:09;13.15;;;10.52;;
40609;SDS011;26316;55.976;37.140;2023-03-11T04:51:35;12.52;;;10.15;;
40609;SDS011;26316;55.976;37.140;2023-03-11T04:54:01;11.60;;;9.98;;
40609;SDS011;26316;55.976;37.140;2023-03-11T04:56:28;14.52;;;10.93;;
40609;SDS011;26316;55.976;37.140;2023-03-11T04:58:54;12.00;;;10.50;;
40609;SDS011;26316;55.976;37.140;2023-03-11T05:01:21;14.20;;;10.50;;
40609;SDS011;26316;55.976;37.140;2023-03-11T05:03:47;10.90;;;9.80;;
40609;SDS011;26316;55.976;37.140;2023-03-11T05:06:13;12.80;;;10.57;;
40609;SDS011;26316;55.976;37.140;2023-03-11T05:08:39;10.38;;;9.23;;
40609;SDS011;26316;55.976;37.140;2023-03-11T05:11:05;10.73;;;9.63;;
40609;SDS011;26316;55.976;37.140;2023-03-11T05:13:32;13.27;;;10.40;;
40609;SDS011;26316;55.976;37.140;2023-03-11T05:15:57;11.23;;;10.05;;
40609;SDS011;26316;55.976;37.140;2023-03-11T05:18:24;12.10;;;10.85;;
40609;SDS011;26316;55.976;37.140;2023-03-11T05:20:50;13.93;;;11.35;;
40609;SDS011;26316;55.976;37.140;2023-03-11T05:23:20;12.38;;;10.30;;
40609;SDS011;26316;55.976;37.140;2023-03-11T05:25:46;11.55;;;10.38;;
40609;SDS011;26316;55.976;37.140;2023-03-11T05:28:13;12.52;;;10.65;;
40609;SDS011;26316;55.976;37.140;2023-03-11T05:30:44;12.50;;;10.93;;
40609;SDS011;26316;55.976;37.140;2023-03-11T05:33:10;13.57;;;10.90;;
40609;SDS011;26316;55.976;37.140;2023-03-11T05:35:36;12.70;;;11.38;;
40609;SDS011;26316;55.976;37.140;2023-03-11T05:38:02;14.10;;;12.18;;
40609;SDS011;26316;55.976;37.140;2023-03-11T05:40:29;14.73;;;13.18;;
40609;SDS011;26316;55.976;37.140;2023-03-11T05:42:55;15.38;;;13.00;;
40609;SDS011;26316;55.976;37.140;2023-03-11T05:45:21;15.20;;;13.68;;
40609;SDS011;26316;55.976;37.140;2023-03-11T05:47:50;14.65;;;12.07;;
40609;SDS011;26316;55.976;37.140;2023-03-11T05:50:17;14.00;;;12.27;;
40609;SDS011;26316;55.976;37.140;2023-03-11T05:52:45;14.15;;;12.50;;
40609;SDS011;26316;55.976;37.140;2023-03-11T05:55:11;15.15;;;11.90;;
40609;SDS011;26316;55.976;37.140;2023-03-11T05:57:38;14.73;;;12.63;;
40609;SDS011;26316;55.976;37.140;2023-03-11T06:00:05;13.10;;;11.80;;
40609;SDS011;26316;55.976;37.140;2023-03-11T06:02:39;13.88;;;12.48;;
40609;SDS011;26316;55.976;37.140;2023-03-11T06:05:06;12.90;;;11.27;;
40609;SDS011;26316;55.976;37.140;2023-03-11T06:07:33;13.70;;;12.02;;
40609;SDS011;26316;55.976;37.140;2023-03-11T06:10:00;13.75;;;11.32;;
40609;SDS011;26316;55.976;37.140;2023-03-11T06:12:28;13.02;;;11.73;;
40609;SDS011;26316;55.976;37.140;2023-03-11T06:15:06;13.35;;;11.73;;
40609;SDS011;26316;55.976;37.140;2023-03-11T06:17:32;17.08;;;11.85;;
40609;SDS011;26316;55.976;37.140;2023-03-11T06:20:00;13.30;;;10.60;;
40609;SDS011;26316;55.976;37.140;2023-03-11T06:22:25;12.00;;;10.48;;
40609;SDS011;26316;55.976;37.140;2023-03-11T06:24:51;12.52;;;10.82;;
40609;SDS011;26316;55.976;37.140;2023-03-11T06:27:17;13.05;;;11.65;;
40609;SDS011;26316;55.976;37.140;2023-03-11T06:29:43;14.63;;;10.88;;
40609;SDS011;26316;55.976;37.140;2023-03-11T06:32:10;12.18;;;10.85;;
40609;SDS011;26316;55.976;37.140;2023-03-11T06:34:36;11.30;;;10.07;;
40609;SDS011;26316;55.976;37.140;2023-03-11T06:37:02;15.15;;;10.05;;
40609;SDS011;26316;55.976;37.140;2023-03-11T06:39:28;12.05;;;9.70;;
40609;SDS011;26316;55.976;37.140;2023-03-11T06:41:53;11.10;;;9.10;;
40609;SDS011;26316;55.976;37.140;2023-03-11T06:44:19;11.00;;;9.73;;
40609;SDS011;26316;55.976;37.140;2023-03-11T06:46:45;11.60;;;9.10;;
40609;SDS011;26316;55.976;37.140;2023-03-11T06:49:12;13.18;;;9.32;;
40609;SDS011;26316;55.976;37.140;2023-03-11T06:51:39;12.40;;;9.43;;
40609;SDS011;26316;55.976;37.140;2023-03-11T06:54:06;9.95;;;8.95;;
40609;SDS011;26316;55.976;37.140;2023-03-11T06:56:32;11.18;;;9.38;;
40609;SDS011;26316;55.976;37.140;2023-03-11T06:59:03;12.02;;;9.38;;
40609;SDS011;26316;55.976;37.140;2023-03-11T07:01:30;11.07;;;8.82;;
40609;SDS011;26316;55.976;37.140;2023-03-11T07:03:58;10.18;;;9.05;;
40609;SDS011;26316;55.976;37.140;2023-03-11T07:06:25;9.82;;;8.25;;
40609;SDS011;26316;55.976;37.140;2023-03-11T07:08:57;9.95;;;8.80;;
40609;SDS011;26316;55.976;37.140;2023-03-11T07:11:24;12.80;;;8.50;;
40609;SDS011;26316;55.976;37.140;2023-03-11T07:13:54;19.38;;;9.75;;
40609;SDS011;26316;55.976;37.140;2023-03-11T07:16:21;11.48;;;8.60;;
40609;SDS011;26316;55.976;37.140;2023-03-11T07:21:16;12.98;;;10.25;;
40609;SDS011;26316;55.976;37.140;2023-03-11T07:23:46;16.55;;;10.02;;
40609;SDS011;26316;55.976;37.140;2023-03-11T07:26:13;11.93;;;9.55;;
40609;SDS011;26316;55.976;37.140;2023-03-11T07:28:40;10.75;;;9.65;;
40609;SDS011;26316;55.976;37.140;2023-03-11T07:31:07;11.32;;;9.32;;
40609;SDS011;26316;55.976;37.140;2023-03-11T07:33:33;12.98;;;10.02;;
40609;SDS011;26316;55.976;37.140;2023-03-11T07:36:03;12.80;;;10.20;;
40609;SDS011;26316;55.976;37.140;2023-03-11T07:38:30;12.02;;;9.32;;
40609;SDS011;26316;55.976;37.140;2023-03-11T07:40:58;11.25;;;9.10;;
40609;SDS011;26316;55.976;37.140;2023-03-11T07:43:24;12.75;;;8.40;;
40609;SDS011;26316;55.976;37.140;2023-03-11T07:45:50;11.73;;;8.77;;
40609;SDS011;26316;55.976;37.140;2023-03-11T07:48:16;10.25;;;8.55;;
40609;SDS011;26316;55.976;37.140;2023-03-11T07:50:41;9.45;;;8.57;;
40609;SDS011;26316;55.976;37.140;2023-03-11T07:53:07;11.55;;;8.80;;
40609;SDS011;26316;55.976;37.140;2023-03-11T07:55:33;8.95;;;7.45;;
40609;SDS011;26316;55.976;37.140;2023-03-11T07:57:59;10.23;;;8.23;;
40609;SDS011;26316;55.976;37.140;2023-03-11T08:00:24;9.23;;;7.53;;
40609;SDS011;26316;55.976;37.140;2023-03-11T08:02:50;8.18;;;6.97;;
40609;SDS011;26316;55.976;37.140;2023-03-11T08:05:16;9.35;;;7.82;;
40609;SDS011;26316;55.976;37.140;2023-03-11T08:07:45;9.98;;;7.30;;
40609;SDS011;26316;55.976;37.140;2023-03-11T08:10:11;8.43;;;7.05;;
40609;SDS011;26316;55.976;37.140;2023-03-11T08:12:37;10.23;;;7.40;;
40609;SDS011;26316;55.976;37.140;2023-03-11T08:15:03;9.10;;;7.45;;
40609;SDS011;26316;55.976;37.140;2023-03-11T08:17:29;9.48;;;7.32;;
40609;SDS011;26316;55.976;37.140;2023-03-11T08:19:55;9.18;;;7.05;;
40609;SDS011;26316;55.976;37.140;2023-03-11T08:22:20;8.90;;;6.70;;
40609;SDS011;26316;55.976;37.140;2023-03-11T08:24:49;7.03;;;6.30;;
40609;SDS011;26316;55.976;37.140;2023-03-11T08:27:15;9.65;;;7.53;;
40609;SDS011;26316;55.976;37.140;2023-03-11T08:29:41;8.40;;;7.45;;
40609;SDS011;26316;55.976;37.140;2023-03-11T08:32:07;8.50;;;7.18;;
40609;SDS011;26316;55.976;37.140;2023-03-11T08:34:32;9.35;;;7.05;;
40609;SDS011;26316;55.976;37.140;2023-03-11T08:36:59;8.13;;;7.28;;
40609;SDS011;26316;55.976;37.140;2023-03-11T08:39:25;10.18;;;7.82;;
40609;SDS011;26316;55.976;37.140;2023-03-11T08:41:51;8.85;;;7.90;;
40609;SDS011;26316;55.976;37.140;2023-03-11T08:44:16;10.32;;;8.65;;
40609;SDS011;26316;55.976;37.140;2023-03-11T08:46:42;8.88;;;7.78;;
40609;SDS011;26316;55.976;37.140;2023-03-11T08:49:07;8.63;;;7.32;;
40609;SDS011;26316;55.976;37.140;2023-03-11T08:51:34;9.68;;;7.70;;
40609;SDS011;26316;55.976;37.140;2023-03-11T08:54:00;9.27;;;7.93;;
40609;SDS011;26316;55.976;37.140;2023-03-11T08:56:26;7.82;;;7.03;;
40609;SDS011;26316;55.976;37.140;2023-03-11T08:58:51;10.50;;;7.65;;
40609;SDS011;26316;55.976;37.140;2023-03-11T09:01:17;8.02;;;6.57;;
40609;SDS011;26316;55.976;37.140;2023-03-11T09:03:44;8.77;;;7.15;;
40609;SDS011;26316;55.976;37.140;2023-03-11T09:06:12;9.48;;;7.15;;
40609;SDS011;26316;55.976;37.140;2023-03-11T09:08:40;8.50;;;6.40;;
40609;SDS011;26316;55.976;37.140;2023-03-11T09:11:06;9.38;;;6.90;;
40609;SDS011;26316;55.976;37.140;2023-03-11T09:13:32;13.38;;;7.38;;
40609;SDS011;26316;55.976;37.140;2023-03-11T09:15:58;8.88;;;6.43;;
40609;SDS011;26316;55.976;37.140;2023-03-11T09:18:24;7.32;;;6.35;;
40609;SDS011;26316;55.976;37.140;2023-03-11T09:20:49;10.23;;;5.75;;
40609;SDS011;26316;55.976;37.140;2023-03-11T09:23:16;8.05;;;6.57;;
40609;SDS011;26316;55.976;37.140;2023-03-11T09:25:42;10.10;;;5.90;;
40609;SDS011;26316;55.976;37.140;2023-03-11T09:28:08;8.63;;;5.85;;
40609;SDS011;26316;55.976;37.140;2023-03-11T09:30:34;6.95;;;6.25;;
40609;SDS011;26316;55.976;37.140;2023-03-11T09:33:00;6.50;;;5.57;;
40609;SDS011;26316;55.976;37.140;2023-03-11T09:35:26;8.32;;;5.82;;
40609;SDS011;26316;55.976;37.140;2023-03-11T09:37:51;6.32;;;5.72;;
40609;SDS011;26316;55.976;37.140;2023-03-11T09:40:18;7.15;;;6.10;;
40609;SDS011;26316;55.976;37.140;2023-03-11T09:45:37;6.65;;;5.97;;
40609;SDS011;26316;55.976;37.140;2023-03-11T09:51:16;8.77;;;6.13;;
40609;SDS011;26316;55.976;37.140;2023-03-11T09:53:48;7.10;;;5.78;;
40609;SDS011;26316;55.976;37.140;2023-03-11T09:56:19;8.27;;;6.38;;
40609;SDS011;26316;55.976;37.140;2023-03-11T09:58:49;10.68;;;5.90;;
40609;SDS011;26316;55.976;37.140;2023-03-11T10:01:22;6.50;;;5.90;;
40609;SDS011;26316;55.976;37.140;2023-03-11T10:03:51;5.75;;;5.20;;
40609;SDS011;26316;55.976;37.140;2023-03-11T10:17:45;9.93;;;6.57;;
40609;SDS011;26316;55.976;37.140;2023-03-11T10:31:27;6.38;;;5.60;;
40609;SDS011;26316;55.976;37.140;2023-03-11T10:36:34;5.97;;;5.38;;
40609;SDS011;26316;55.976;37.140;2023-03-11T10:39:02;7.20;;;5.18;;
40609;SDS011;26316;55.976;37.140;2023-03-11T10:41:41;9.20;;;4.80;;
40609;SDS011;26316;55.976;37.140;2023-03-11T10:46:38;7.05;;;6.35;;
40609;SDS011;26316;55.976;37.140;2023-03-11T10:49:04;7.40;;;5.90;;
40609;SDS011;26316;55.976;37.140;2023-03-11T10:51:34;6.55;;;5.78;;
40609;SDS011;26316;55.976;37.140;2023-03-11T10:54:00;7.32;;;6.03;;
40609;SDS011;26316;55.976;37.140;2023-03-11T10:56:35;6.40;;;5.70;;
40609;SDS011;26316;55.976;37.140;2023-03-11T10:59:02;7.22;;;6.07;;
40609;SDS011;26316;55.976;37.140;2023-03-11T11:01:29;9.75;;;5.47;;
40609;SDS011;26316;55.976;37.140;2023-03-11T11:03:57;7.40;;;5.97;;
40609;SDS011;26316;55.976;37.140;2023-03-11T11:11:43;7.00;;;5.88;;
40609;SDS011;26316;55.976;37.140;2023-03-11T11:14:24;5.70;;;5.10;;
40609;SDS011;26316;55.976;37.140;2023-03-11T11:16:50;5.53;;;5.03;;
40609;SDS011;26316;55.976;37.140;2023-03-11T11:19:16;7.47;;;5.60;;
40609;SDS011;26316;55.976;37.140;2023-03-11T11:21:46;7.97;;;6.05;;
40609;SDS011;26316;55.976;37.140;2023-03-11T11:32:28;7.10;;;6.40;;
40609;SDS011;26316;55.976;37.140;2023-03-11T11:37:28;5.97;;;5.35;;
40609;SDS011;26316;55.976;37.140;2023-03-11T11:40:04;6.28;;;5.68;;
40609;SDS011;26316;55.976;37.140;2023-03-11T11:42:38;6.50;;;5.85;;
40609;SDS011;26316;55.976;37.140;2023-03-11T11:45:11;5.63;;;5.15;;
40609;SDS011;26316;55.976;37.140;2023-03-11T11:47:40;7.53;;;6.35;;
40609;SDS011;26316;55.976;37.140;2023-03-11T11:52:49;7.30;;;6.30;;
40609;SDS011;26316;55.976;37.140;2023-03-11T11:55:19;8.45;;;6.60;;
40609;SDS011;26316;55.976;37.140;2023-03-11T11:57:45;7.47;;;6.75;;
40609;SDS011;26316;55.976;37.140;2023-03-11T12:00:16;7.63;;;6.88;;
40609;SDS011;26316;55.976;37.140;2023-03-11T12:05:54;7.43;;;6.65;;
40609;SDS011;26316;55.976;37.140;2023-03-11T12:08:30;9.13;;;7.28;;
40609;SDS011;26316;55.976;37.140;2023-03-11T12:11:05;8.85;;;6.72;;
40609;SDS011;26316;55.976;37.140;2023-03-11T12:16:36;8.23;;;6.75;;
40609;SDS011;26316;55.976;37.140;2023-03-11T12:29:47;7.75;;;6.88;;
40609;SDS011;26316;55.976;37.140;2023-03-11T12:32:24;7.90;;;6.60;;
40609;SDS011;26316;55.976;37.140;2023-03-11T12:35:02;8.52;;;7.60;;
40609;SDS011;26316;55.976;37.140;2023-03-11T12:37:35;8.35;;;6.75;;
40609;SDS011;26316;55.976;37.140;2023-03-11T12:40:37;7.88;;;7.07;;
40609;SDS011;26316;55.976;37.140;2023-03-11T12:43:21;7.45;;;6.40;;
40609;SDS011;26316;55.976;37.140;2023-03-11T12:45:52;8.98;;;7.10;;
40609;SDS011;26316;55.976;37.140;2023-03-11T12:49:04;7.43;;;6.72;;
40609;SDS011;26316;55.976;37.140;2023-03-11T12:53:57;8.48;;;7.68;;
40609;SDS011;26316;55.976;37.140;2023-03-11T12:56:26;9.20;;;8.05;;
40609;SDS011;26316;55.976;37.140;2023-03-11T13:09:29;8.77;;;7.88;;
40609;SDS011;26316;55.976;37.140;2023-03-11T13:11:54;8.18;;;7.43;;
40609;SDS011;26316;55.976;37.140;2023-03-11T13:16:56;8.45;;;7.47;;
40609;SDS011;26316;55.976;37.140;2023-03-11T13:19:46;8.10;;;7.28;;
40609;SDS011;26316;55.976;37.140;2023-03-11T13:27:57;8.98;;;8.02;;
40609;SDS011;26316;55.976;37.140;2023-03-11T13:30:32;9.95;;;8.38;;
40609;SDS011;26316;55.976;37.140;2023-03-11T13:33:19;9.98;;;8.98;;
40609;SDS011;26316;55.976;37.140;2023-03-11T13:35:57;9.40;;;8.43;;
40609;SDS011;26316;55.976;37.140;2023-03-11T13:38:37;11.40;;;8.63;;
40609;SDS011;26316;55.976;37.140;2023-03-11T13:43:55;11.32;;;8.48;;
40609;SDS011;26316;55.976;37.140;2023-03-11T13:46:35;9.38;;;8.43;;
40609;SDS011;26316;55.976;37.140;2023-03-11T13:49:06;9.95;;;8.55;;
40609;SDS011;26316;55.976;37.140;2023-03-11T13:51:47;11.93;;;8.10;;
40609;SDS011;26316;55.976;37.140;2023-03-11T13:56:45;10.23;;;8.07;;
40609;SDS011;26316;55.976;37.140;2023-03-11T13:59:29;10.38;;;8.95;;
40609;SDS011;26316;55.976;37.140;2023-03-11T14:04:29;10.25;;;8.70;;
40609;SDS011;26316;55.976;37.140;2023-03-11T14:06:56;10.30;;;8.50;;
40609;SDS011;26316;55.976;37.140;2023-03-11T14:09:23;11.25;;;8.05;;
40609;SDS011;26316;55.976;37.140;2023-03-11T14:11:51;9.63;;;8.43;;
40609;SDS011;26316;55.976;37.140;2023-03-11T14:17:18;11.52;;;8.63;;
40609;SDS011;26316;55.976;37.140;2023-03-11T14:20:04;13.45;;;9.05;;
40609;SDS011;26316;55.976;37.140;2023-03-11T14:22:44;9.85;;;8.70;;
40609;SDS011;26316;55.976;37.140;2023-03-11T14:25:14;9.73;;;8.48;;
40609;SDS011;26316;55.976;37.140;2023-03-11T14:27:48;12.05;;;9.02;;
40609;SDS011;26316;55.976;37.140;2023-03-11T14:30:26;11.73;;;9.00;;
40609;SDS011;26316;55.976;37.140;2023-03-11T14:35:22;10.18;;;8.57;;
40609;SDS011;26316;55.976;37.140;2023-03-11T14:37:47;12.38;;;9.15;;
40609;SDS011;26316;55.976;37.140;2023-03-11T14:40:32;12.52;;;9.50;;
40609;SDS011;26316;55.976;37.140;2023-03-11T14:43:05;12.90;;;8.85;;
40609;SDS011;26316;55.976;37.140;2023-03-11T14:45:31;13.98;;;9.60;;
40609;SDS011;26316;55.976;37.140;2023-03-11T14:50:27;14.95;;;8.63;;
40609;SDS011;26316;55.976;37.140;2023-03-11T14:55:28;13.38;;;8.13;;
40609;SDS011;26316;55.976;37.140;2023-03-11T14:58:04;10.80;;;8.73;;
40609;SDS011;26316;55.976;37.140;2023-03-11T15:00:34;11.75;;;8.93;;
40609;SDS011;26316;55.976;37.140;2023-03-11T15:03:21;10.88;;;8.15;;
40609;SDS011;26316;55.976;37.140;2023-03-11T15:05:49;13.10;;;9.20;;
40609;SDS011;26316;55.976;37.140;2023-03-11T15:08:21;14.27;;;9.43;;
40609;SDS011;26316;55.976;37.140;2023-03-11T15:13:33;16.17;;;10.23;;
40609;SDS011;26316;55.976;37.140;2023-03-11T15:16:03;13.45;;;10.38;;
40609;SDS011;26316;55.976;37.140;2023-03-11T15:18:32;12.27;;;10.57;;
40609;SDS011;26316;55.976;37.140;2023-03-11T15:25:58;14.52;;;11.63;;
40609;SDS011;26316;55.976;37.140;2023-03-11T15:28:27;14.88;;;11.25;;
40609;SDS011;26316;55.976;37.140;2023-03-11T15:44:38;15.98;;;11.30;;
40609;SDS011;26316;55.976;37.140;2023-03-11T15:49:40;17.23;;;11.23;;
40609;SDS011;26316;55.976;37.140;2023-03-11T15:52:07;14.18;;;11.00;;
40609;SDS011;26316;55.976;37.140;2023-03-11T15:54:33;14.43;;;11.45;;
40609;SDS011;26316;55.976;37.140;2023-03-11T15:56:59;15.15;;;10.85;;
40609;SDS011;26316;55.976;37.140;2023-03-11T15:59:25;12.65;;;10.35;;
40609;SDS011;26316;55.976;37.140;2023-03-11T16:01:52;14.70;;;10.63;;
40609;SDS011;26316;55.976;37.140;2023-03-11T16:04:18;13.02;;;10.05;;
40609;SDS011;26316;55.976;37.140;2023-03-11T16:06:45;15.63;;;10.40;;
40609;SDS011;26316;55.976;37.140;2023-03-11T16:09:11;13.07;;;9.77;;
40609;SDS011;26316;55.976;37.140;2023-03-11T16:11:37;17.25;;;11.20;;
40609;SDS011;26316;55.976;37.140;2023-03-11T16:14:04;14.20;;;10.38;;
40609;SDS011;26316;55.976;37.140;2023-03-11T16:16:30;13.40;;;11.30;;
40609;SDS011;26316;55.976;37.140;2023-03-11T16:18:57;12.43;;;8.25;;
40609;SDS011;26316;55.976;37.140;2023-03-11T16:21:23;11.93;;;7.28;;
40609;SDS011;26316;55.976;37.140;2023-03-11T16:23:55;11.75;;;6.60;;
40609;SDS011;26316;55.976;37.140;2023-03-11T16:26:20;8.57;;;6.03;;
40609;SDS011;26316;55.976;37.140;2023-03-11T16:28:46;10.35;;;6.50;;
40609;SDS011;26316;55.976;37.140;2023-03-11T16:31:12;13.15;;;6.05;;
40609;SDS011;26316;55.976;37.140;2023-03-11T16:33:38;13.07;;;6.10;;
40609;SDS011;26316;55.976;37.140;2023-03-11T16:36:04;9.35;;;6.13;;
40609;SDS011;26316;55.976;37.140;2023-03-11T16:38:30;14.55;;;6.05;;
40609;SDS011;26316;55.976;37.140;2023-03-11T16:40:58;12.00;;;5.78;;
40609;SDS011;26316;55.976;37.140;2023-03-11T16:43:26;11.07;;;6.13;;
40609;SDS011;26316;55.976;37.140;2023-03-11T16:45:53;7.85;;;6.20;;
40609;SDS011;26316;55.976;37.140;2023-03-11T16:48:22;7.05;;;5.43;;
40609;SDS011;26316;55.976;37.140;2023-03-11T16:50:48;10.93;;;5.93;;
40609;SDS011;26316;55.976;37.140;2023-03-11T16:53:13;7.80;;;5.70;;
40609;SDS011;26316;55.976;37.140;2023-03-11T16:55:44;10.30;;;5.85;;
40609;SDS011;26316;55.976;37.140;2023-03-11T16:58:11;8.75;;;6.13;;